Tiempo atmosférico en la estación meteorológica de Estaca De Bares, A Coruña (80 m.)



Fecha
DESCASC
Temp. máxima en grados centígrados (hora)
DESCASC
Temp. mínima en grados centígrados (hora)
DESCASC
Temp. media en grados centígrados
DESCASC
Racha de viento máxima en m/sg (hora)
DESCASC
Velocidad máxima media en intervalos de 10 minutos(hora)
DESCASC
Precipitaciones diarias en mm
DESCASC
Precipitaciones de 00:00 a 06:00 en mm
DESCASC
Precipitaciones de 06:00 a 12:00 en mm
DESCASC
Precipitaciones de 12:00 a 18:00 en mm
DESCASC
Precipitaciones de 18:00 a 24:00 en mm
DESCASC
20-09-2018 21.1 (18:10) 14.5 (02:40) 17.8 17.5 (23:50) 13.61 (23:40) -- -- -- -- --
19-09-2018 23 (14:10) 15.4 (08:40) 19.2 12.5 (16:40) 11.67 (16:40) -- -- -- -- --
18-09-2018 21.2 (15:30) 17 (03:00) 19.1 16.39 (18:00) 14.17 (18:00) -- -- -- -- --
17-09-2018 19.6 (17:40) 14.7 (05:50) 17.2 17.78 (19:20) 14.72 (18:30) -- -- -- -- --
16-09-2018 20.9 (16:20) 15.5 (00:00) 18.2 8.06 (23:59) 6.39 (22:00) -- -- -- -- --
15-09-2018 20.3 (13:40) 16.9 (00:00) 18.6 15.56 (04:30) 12.22 (05:10) -- -- -- -- --
14-09-2018 18.8 (17:20) 16.3 (00:00) 17.5 12.22 (10:50) 10 (19:30) -- -- -- -- --
13-09-2018 22.2 (14:20) 16.8 (00:00) 19.5 11.39 (19:20) 7.5 (19:50) -- -- -- -- --
12-09-2018 22.5 (14:10) 17.9 (00:00) 20.2 8.89 (04:10) 6.11 (04:10) -- -- -- -- --
11-09-2018 19.6 (13:50) 16.2 (00:00) 17.9 11.94 (01:00) 9.72 (18:50) -- -- -- -- --
10-09-2018 20.5 (14:30) 16.6 (00:00) 18.6 11.67 (22:10) 9.72 (22:20) -- -- -- -- --
09-09-2018 21.2 (13:30) 17.7 (00:00) 19.5 7.78 (23:40) 5.83 (20:10) -- -- -- -- --
08-09-2018 20.6 (13:10) 15.8 (00:00) 18.2 12.22 (00:40) 10.28 (01:00) -- -- -- -- --
07-09-2018 19.6 (16:00) 15.6 (00:00) 17.6 13.61 (03:50) 11.11 (04:30) -- -- -- -- --
06-09-2018 17.5 (11:30) 15.7 (00:00) 16.6 12.78 (09:20) 9.17 (23:59) -- -- -- -- --
05-09-2018 17.9 (16:40) 15.2 (00:00) 16.5 18.06 (07:30) 13.33 (07:40) -- -- -- -- --
04-09-2018 20.1 (14:50) 16.6 (00:00) 18.4 14.44 (19:00) 11.67 (22:30) -- -- -- -- --
03-09-2018 21.2 (13:00) 17.6 (00:00) 19.4 16.11 (15:50) 12.78 (15:50) -- -- -- -- --
02-09-2018 21.4 (16:40) 17.2 (00:00) 19.3 15 (05:00) 12.78 (05:40) -- -- -- -- --
01-09-2018 21.7 (15:20) 18.8 (00:00) 20.3 14.17 (16:30) 12.5 (17:10) -- -- -- -- --
31-08-2018 22.4 (14:40) 18.1 (00:00) 20.3 10.56 (23:00) 7.78 (22:00) -- -- -- -- --
30-08-2018 21.9 (14:40) 15.2 (00:00) 18.5 8.61 (20:10) 7.22 (22:30) 0.2 0 0.2 0 0
29-08-2018 20.2 (14:10) 15.2 (00:00) 17.7 11.94 (00:10) 10.56 (00:10) 0 0 0 0 0
28-08-2018 24.1 (14:20) 17.4 (00:00) 20.8 13.06 (06:30) 10.56 (23:59) 0 0 0 0 0
27-08-2018 21.7 (13:20) 18.4 (00:00) 20.1 12.5 (22:40) 10.56 (21:40) 0 0 0 0 0
26-08-2018 24.1 (16:30) 15.1 (00:00) 19.6 7.5 (13:50) 6.39 (13:50) 0 0 0 0 0
25-08-2018 23.9 (17:20) 15.6 (00:00) 19.8 5 (23:10) 4.17 (23:10) 0 0 0 0 0
24-08-2018 21.9 (13:30) 16.7 (00:00) 19.3 10 (02:40) 6.67 (02:40) 0 0 0 0 0

Gráficas

Temp. máximas Temp. mínimas Temp. medias Precipitaciones Rachas de viento máximas Velocidades máximas media en intervalos de 10 minutos

Datos horarios

Fecha y hora oficial Temperatura (ºC) Velocidad del viento (km/h) Dirección del viento Racha (km/h) Dirección de racha Precipitación (mm) Presión (hPa) Tendencia (hPa) Humedad (%)
2018-09-22 23:00:00 18.6 15 Oeste 21 Sudoeste 0 1013.9 1.5 83
2018-09-22 22:00:00 18.9 14 Sudoeste 26 Oeste 0 1013.5 1.5 83
2018-09-22 21:00:00 17.8 25 Oeste 40 Oeste 0 1013.1 1 83
2018-09-22 20:00:00 18.6 36 Oeste 45 Oeste 0 1012.4 0.5 80
2018-09-22 19:00:00 19.1 38 Oeste 48 Oeste 0 1012 0 78
2018-09-22 18:00:00 20.1 26 Oeste 51 Oeste 0 1012.1 -0.2 77
2018-09-22 17:00:00 19.8 44 Oeste 51 Noroeste 0 1011.9 -0.7 76
2018-09-22 16:00:00 20.7 37 Oeste 44 Oeste 0 1012 -0.9 74
2018-09-22 15:00:00 20.7 36 Oeste 45 Oeste 0 1012.3 -0.5 75
2018-09-22 14:00:00 20.5 33 Oeste 42 Oeste 0 1012.6 0.1 76
2018-09-22 13:00:00 20.4 15 Oeste 30 Oeste 0 1012.9 0.9 76
2018-09-22 12:00:00 18.9 14 Oeste 19 Oeste 0 1012.8 1.3 81
2018-09-22 11:00:00 17 13 Oeste 16 Oeste 0 1012.5 1.3 87
2018-09-22 10:00:00 16.1 9 Oeste 13 Oeste 0 1012 1.1 88
2018-09-22 09:00:00 16.2 9 Sudoeste 14 Sudoeste 0 1011.5 0.6 88
2018-09-22 08:00:00 16.3 10 Sudoeste 12 Oeste 0 1011.2 0.4 87
2018-09-22 07:00:00 16.9 11 Sudoeste 14 Oeste 0 1010.9 -0.1 86
2018-09-22 06:00:00 16.5 8 Oeste 10 Oeste 0 1010.9 -0.5 86
2018-09-22 05:00:00 17 2 Oeste 13 Sur 0 1010.8 -0.8 85
2018-09-22 04:00:00 17.1 7 Sudoeste 18 Sur 0 1011 -1.1 84
2018-09-22 03:00:00 16.4 12 Sudeste 25 Sudeste 0 1011.4 -0.7 85
2018-09-22 02:00:00 16.2 16 Sudeste 30 Sudeste 0 1011.6 -0.5 85
2018-09-22 01:00:00 16.4 23 Sudeste 28 Sudeste 0 1012.1 0.1 84
2018-09-22 00:00:00 16.2 22 Sudeste 32 Sudeste 0 1012.1 0 84
2018-09-21 23:00:00 16.4 23 Sudeste 37 Sudeste 0 1012.1 0 84
2018-09-21 22:00:00 16.4 29 Sudeste 40 Sudeste 0 1012 0 85
2018-09-21 21:00:00 16.6 25 Sudeste 35 Sudeste 0 1012.1 -0.2 82
2018-09-21 20:00:00 16.9 21 Sudeste 28 Sudeste 0 1012.1 0.1 81
2018-09-21 19:00:00 17.4 20 Sudeste 27 Sudeste 0 1012 0 79
2018-09-21 18:00:00 17.6 18 Sudeste 27 Sudeste 0 1012.3 0.4 79
2018-09-21 17:00:00 17.4 14 Sudeste 19 Sudeste 0 1012 0.1 82
2018-09-21 16:00:00 17.9 12 Sudeste 18 Este 0 1012 0.1 78
2018-09-21 15:00:00 18.1 10 Sudeste 14 Este 0 1011.9 0.2 79
2018-09-21 14:00:00 18.6 8 Este 14 Este 0 1011.9 0.9 81
2018-09-21 13:00:00 17.2 8 Nordeste 14 Nordeste 0 1011.9 1.6 85
2018-09-21 12:00:00 17.1 2 Nordeste 8 Noroeste 0 1011.7 2.2 90
2018-09-21 11:00:00 16.8 4 Oeste 11 Oeste 0 1011 3.1 90
2018-09-21 10:00:00 16.6 4 Noroeste 12 Noroeste 0 1010.3 3.5 90
2018-09-21 09:00:00 16.6 6 Oeste 55 Oeste 0 1009.5 3.7 89
2018-09-21 08:00:00 16.4 47 Oeste 54 Oeste 0 1007.9 2.2 88
2018-09-21 07:00:00 18.6 41 Oeste 55 Oeste 0 1006.8 1 76
2018-09-21 06:00:00 18.6 52 Oeste 69 Oeste 0 1005.8 -0.3 76
2018-09-21 05:00:00 18.2 54 Oeste 63 Oeste 0 1005.7 -0.4 77
2018-09-21 04:00:00 18 47 Oeste 59 Oeste 0 1005.8 -0.2 78
2018-09-21 03:00:00 18.2 48 Oeste 61 Oeste 0 1006.1 -0.3 77
2018-09-21 02:00:00 18.2 47 Oeste 58 Oeste 0 1006.1 -0.8 76
2018-09-21 01:00:00 18.2 45 Oeste 58 Sudoeste 0 1006 -1.1 77
2018-09-21 00:00:00 18.6 45 Oeste 63 Oeste 0 1006.4 -0.4 76
2018-09-20 23:00:00 19.3 42 Oeste 58 Sudoeste 0 1006.9 0.2 72
2018-09-20 22:00:00 18.5 33 Oeste 41 Sudoeste 0 1007.1 0.1 76
2018-09-20 21:00:00 18 25 Oeste 35 Oeste 0 1006.8 0.1 78
2018-09-20 20:00:00 19.3 25 Oeste 35 Oeste 0 1006.7 0.2 73
2018-09-20 19:00:00 20 23 Oeste 40 Oeste 0 1007 0 70
2018-09-20 18:00:00 21 31 Oeste 55 Oeste 0 1006.7 -0.9 68
2018-09-20 17:00:00 19.8 48 Oeste 57 Oeste 0 1006.5 -1.8 70
2018-09-20 16:00:00 20.2 26 Oeste 37 Oeste 0 1007 -2 70
2018-09-20 15:00:00 19.4 7 Noroeste 26 Oeste 0 1007.6 -1.8 72
2018-09-20 14:00:00 19.5 19 Oeste 28 Oeste 0 1008.3 -1 75
2018-09-20 13:00:00 17.5 19 Oeste 27 Oeste 0 1009 -0.3 82
2018-09-20 12:00:00 16.4 13 Oeste 17 Oeste 0 1009.4 0.3 85
2018-09-20 11:00:00 16.1 13 Oeste 21 Oeste 0 1009.3 0.2 85
2018-09-20 10:00:00 15.8 8 Oeste 10 Oeste 0 1009.3 0.2 84
2018-09-20 09:00:00 15.4 8 Sudoeste 10 Sudoeste 0 1009.1 -0.1 84
2018-09-20 08:00:00 15.4 5 Sudoeste 7 Sudoeste 0 1009.1 -0.4 84
2018-09-20 07:00:00 16.7 8 Sur 13 Sur 0 1009.1 -0.7 77
2018-09-20 06:00:00 15.8 3 Sur 5 Sudeste 0 1009.2 -1.2 82
2018-09-20 05:00:00 16.4 4 Oeste 15 Sur 0 1009.5 -1.4 81
2018-09-20 04:00:00 16.2 8 Sur 14 Sur 0 1009.8 -1.7 84
2018-09-20 03:00:00 15.5 8 Sur 12 Sur 0 1010.4 -1.3 89
2018-09-20 02:00:00 14.9 6 Oeste 11 Noroeste 0 1010.9 -0.8 88
2018-09-20 01:00:00 16.4 5 Oeste 13 Sudoeste 0 1011.5 0 85
2018-09-20 00:00:00 17.6 7 Sudoeste 12 Sudoeste 0 1011.7 0.5 82
2018-09-19 23:00:00 17.5 7 Sudoeste 13 Sudeste 0 1011.7 1 85
2018-09-19 22:00:00 17.2 9 Este 11 Este 0 1011.5 1 85
2018-09-19 21:00:00 18.2 9 Sudeste 24 Oeste 0 1011.2 1.3 83
2018-09-19 20:00:00 18.8 19 Oeste 36 Oeste 0 1010.7 1 80
2018-09-19 19:00:00 19.5 19 Oeste 44 Oeste 0 1010.5 0.1 79
2018-09-19 18:00:00 19.9 29 Oeste 40 Oeste 0 1009.9 -0.8 74
2018-09-19 17:00:00 20.4 38 Oeste 45 Oeste 0 1009.7 -1.2 71
2018-09-19 16:00:00 21.8 24 Oeste 35 Noroeste 0 1010.4 -0.6 66
2018-09-19 15:00:00 21.1 22 Oeste 31 Oeste 0 1010.7 -0.1 69
2018-09-19 14:00:00 22.9 12 Oeste 26 Oeste 0 1010.9 0.4 61
2018-09-19 13:00:00 21.6 19 Oeste 32 Oeste 0 1011 0.8 64
2018-09-19 12:00:00 20.7 26 Oeste 31 Oeste 0 1010.8 1.2 66
2018-09-19 11:00:00 19.1 22 Oeste 28 Oeste 0 1010.5 1.3 67
2018-09-19 10:00:00 16.9 12 Oeste 17 Oeste 0 1010.2 1.3 75
2018-09-19 09:00:00 15.6 14 Sudoeste 17 Sudoeste 0 1009.6 1 78
2018-09-19 08:00:00 15.6 9 Sudoeste 15 Oeste 0 1009.2 0.6 78
2018-09-19 07:00:00 16 9 Oeste 23 Sudoeste 0 1008.9 0.1 77
2018-09-19 06:00:00 17.3 17 Sudoeste 23 Sudoeste 0 1008.6 -0.5 72
2018-09-19 05:00:00 16.3 21 Oeste 25 Oeste 0 1008.6 -0.4 76
2018-09-19 04:00:00 16.7 16 Oeste 23 Oeste 0 1008.8 -0.4 74
2018-09-19 03:00:00 15.5 18 Oeste 22 Oeste 0 1009.1 0.3 79
2018-09-19 02:00:00 17 18 Sudoeste 21 Sudoeste 0 1009 0 72
2018-09-19 01:00:00 16.3 12 Oeste 15 Oeste 0 1009.2 0.2 75
2018-09-19 00:00:00 17.7 14 Sudoeste 20 Sudoeste 0 1008.8 0.5 67
2018-09-18 23:00:00 17.8 15 Sudoeste 22 Sudoeste 0 1009 1.7 68
2018-09-18 22:00:00 17.7 10 Sudoeste 22 Oeste 0 1009 2.5 69
2018-09-18 21:00:00 17.5 16 Oeste 33 Oeste 0 1008.3 2.3 72
2018-09-18 20:00:00 17.9 35 Oeste 46 Oeste 0 1007.3 1.1 69
2018-09-18 19:00:00 19.3 37 Oeste 54 Oeste 0 1006.5 0.1 65
2018-09-18 18:00:00 19.5 51 Oeste 59 Oeste 0 1006 -0.5 63
2018-09-18 17:00:00 19.6 35 Oeste 42 Oeste 0 1006.2 -0.6 64
2018-09-18 16:00:00 20.9 35 Oeste 44 Oeste 0 1006.4 -0.7 60
2018-09-18 15:00:00 21 37 Oeste 42 Oeste 0 1006.5 -0.4 62
2018-09-18 14:00:00 18.7 36 Oeste 40 Oeste 0 1006.8 0.3 77
2018-09-18 13:00:00 19.5 15 Oeste 29 Oeste 0 1007.1 1.3 77
2018-09-18 12:00:00 19 13 Oeste 21 Oeste 0 1006.9 1.6 80
2018-09-18 11:00:00 18.5 11 Oeste 14 Oeste 0 1006.5 1.7 84
2018-09-18 10:00:00 17.4 7 Oeste 23 Oeste 0 1005.8 1.1 83
2018-09-18 09:00:00 18.3 22 Oeste 26 Oeste 0 1005.3 0.7 82
2018-09-18 08:00:00 18.5 16 Sudoeste 20 Sudoeste 0 1004.8 0.2 81
2018-09-18 07:00:00 18.3 13 Sudoeste 18 Sudoeste 0 1004.7 0.1 84
2018-09-18 06:00:00 17.8 8 Sudoeste 14 Sudoeste 0 1004.6 -0.4 88
2018-09-18 05:00:00 17.9 10 Oeste 21 Sudoeste 0 1004.6 -0.1 88
2018-09-18 04:00:00 17.5 11 Sudoeste 17 Sudoeste 0 1004.6 0.1 89
2018-09-18 03:00:00 17 9 Oeste 20 Oeste 0 1005 0.4 87
2018-09-18 02:00:00 18.5 12 Sudoeste 20 Sudoeste 0 1004.7 0.3 86
2018-09-18 01:00:00 17.3 16 Sudoeste 30 Oeste 0 1004.5 0.4 87
2018-09-18 00:00:00 17.4 18 Oeste 28 Oeste 0 1004.6 1.5 86
2018-09-17 23:00:00 18.1 9 Oeste 23 Oeste 0 1004.4 2 84
2018-09-17 22:00:00 18.5 5 Noroeste 32 Oeste 0 1004.1 2.2 84
2018-09-17 21:00:00 18 33 Oeste 49 Oeste 0 1003.1 1.2 84
2018-09-17 20:00:00 19 45 Oeste 64 Oeste 0 1002.4 -0.1 81
2018-09-17 19:00:00 18.8 52 Oeste 62 Oeste 0 1001.9 -1 79
2018-09-17 18:00:00 18 49 Oeste 59 Oeste 0 1001.9 -1.4 77
2018-09-17 17:00:00 17.7 34 Oeste 53 Oeste 0 1002.5 -0.9 80
2018-09-17 16:00:00 16.9 33 Oeste 43 Oeste 0 1002.9 -1.2 84
2018-09-17 15:00:00 16.7 27 Oeste 33 Oeste 0 1003.3 -0.9 81
2018-09-17 14:00:00 16.6 22 Oeste 27 Oeste 0 1003.4 -0.6 82
2018-09-17 13:00:00 16.4 18 Oeste 31 Oeste 0 1004.1 0.1 84
2018-09-17 12:00:00 16 21 Oeste 31 Oeste 0 1004.2 0.3 83
2018-09-17 11:00:00 17.3 13 Oeste 18 Oeste 0 1004 0.2 79
2018-09-17 10:00:00 17.5 8 Sudoeste 16 Oeste 0 1004 0.4 76
2018-09-17 09:00:00 16.6 7 Oeste 13 Sudoeste 0 1003.9 -0.2 77
2018-09-17 08:00:00 16.4 3 Oeste 7 Sur 0 1003.8 -0.9 78
2018-09-17 07:00:00 16 4 Sur 19 Sudeste 0 1003.6 -1.7 86
2018-09-17 06:00:00 14.7 12 Sudeste 21 Sudeste 0 1004.1 -1.8 86
2018-09-17 05:00:00 15.2 5 Sudeste 15 Sudeste 0 1004.7 -1.9 87
2018-09-17 04:00:00 15.7 12 Sudeste 18 Sudeste 0 1005.3 -2.1 86
2018-09-17 03:00:00 17.1 17 Sudeste 38 Sudeste 0 1005.9 -2.3 84
2018-09-17 02:00:00 17 21 Sudeste 33 Sudeste 0 1006.6 -2.4 86
2018-09-17 01:00:00 17 23 Sudeste 33 Sudeste 0 1007.4 -2 86
2018-09-17 00:00:00 17.2 22 Sudeste 29 Sudeste 0 1008.2 -1 88
2018-09-16 23:00:00 17.3 19 Sudeste 27 Sudeste 0 1009 -0.3 88
2018-09-16 22:00:00 17.1 23 Sudeste 27 Sudeste 0 1009.4 0.1 88
2018-09-16 21:00:00 17.2 16 Este 22 Este 0 1009.2 -0.4 86
2018-09-16 20:00:00 18.4 14 Este 18 Este 0 1009.3 -0.7 81
2018-09-16 19:00:00 19.2 12 Este 16 Sudeste 0 1009.3 -1.2 78
2018-09-16 18:00:00 19.5 11 Este 13 Este 0 1009.6 -1.2 76
2018-09-16 17:00:00 19.7 6 Este 13 Sudoeste 0 1010 -1.3 72
2018-09-16 16:00:00 20.5 3 Oeste 8 Noroeste 0 1010.5 -1.1 75
2018-09-16 15:00:00 19.2 6 Oeste 10 Oeste 0 1010.8 -0.7 79
2018-09-16 14:00:00 18.6 6 Oeste 8 Oeste 0 1011.3 0.1 80
2018-09-16 13:00:00 18.8 4 Oeste 8 Sudoeste 0 1011.6 1 84
2018-09-16 12:00:00 18.6 5 Oeste 8 Sudoeste 0 1011.5 1.1 86
2018-09-16 11:00:00 17.9 5 Oeste 13 Oeste 0 1011.2 1.2 88
2018-09-16 10:00:00 16.4 11 Sudoeste 21 Oeste 0 1010.6 0.9 89
2018-09-16 09:00:00 16.5 8 Oeste 11 Oeste 0 1010.4 0.7 87
2018-09-16 08:00:00 16.5 8 Oeste 11 Oeste 0 1010 0.5 88
2018-09-16 07:00:00 17 11 Oeste 13 Oeste 0 1009.7 -0.3 87
2018-09-16 06:00:00 17.1 8 Oeste 14 Oeste 0 1009.7 -0.4 87
2018-09-16 05:00:00 17 9 Oeste 14 Oeste 0 1009.5 -0.7 88
2018-09-16 04:00:00 17.1 9 Oeste 13 Oeste 0 1010 -0.3 87
2018-09-16 03:00:00 17 8 Oeste 11 Oeste 0 1010.1 -0.1 88
2018-09-16 02:00:00 17.1 6 Oeste 9 Oeste 0 1010.2 0 88
2018-09-16 01:00:00 16.8 3 Sudeste 14 Este 0 1010.3 0 87
2018-09-16 00:00:00 17.6 13 Este 19 Este 0 1010.2 0.6 88
2018-09-15 23:00:00 17.8 18 Este 23 Este 0 1010.2 1.1 88
2018-09-15 22:00:00 17.8 16 Este 26 Este 0 1010.3 1.6 88
2018-09-15 21:00:00 17.6 17 Este 22 Este 0 1009.6 1.2 87
2018-09-15 20:00:00 18 16 Este 26 Este 0 1009.1 0.5 83
2018-09-15 19:00:00 18.5 20 Este 31 Sudeste 0 1008.7 -0.3 81
2018-09-15 18:00:00 19.1 28 Sudeste 37 Sudeste 0 1008.4 -1.1 79
2018-09-15 17:00:00 19.5 30 Este 37 Este 0 1008.6 -1.4 78
2018-09-15 16:00:00 19.6 31 Este 35 Sudeste 0 1009 -1.3 78
2018-09-15 15:00:00 19.7 28 Este 34 Sudeste 0 1009.5 -0.9 78
2018-09-15 14:00:00 20.2 23 Este 33 Este 0 1010 -0.2 77
2018-09-15 13:00:00 19.8 24 Este 40 Este 0 1010.3 0.4 79
2018-09-15 12:00:00 18.3 26 Este 37 Este 0 1010.4 1.1 84
2018-09-15 11:00:00 18.2 29 Este 44 Este 0 1010.2 1.1 82
2018-09-15 10:00:00 17.6 31 Este 48 Este 0 1009.9 1 84
2018-09-15 09:00:00 17 36 Este 51 Este 0 1009.3 0.1 86
2018-09-15 08:00:00 17 37 Este 56 Este 0 1009.1 -0.2 85
2018-09-15 07:00:00 17.2 44 Este 55 Este 0 1008.9 -0.8 85
2018-09-15 06:00:00 17.2 41 Este 55 Este 0 1009.2 -0.9 86
2018-09-15 05:00:00 17.3 42 Este 56 Este 0 1009.3 -1.2 88
2018-09-15 04:00:00 17.1 35 Este 50 Este 0 1009.7 -1.1 89
2018-09-15 03:00:00 17.3 39 Este 49 Este 0 1010.1 -0.9 90
2018-09-15 02:00:00 17.7 34 Este 50 Este 0 1010.5 -0.6 90
2018-09-15 01:00:00 17.5 26 Este 38 Este 0 1010.8 -0.4 90
2018-09-15 00:00:00 17.7 24 Este 36 Este 0 1011 0.1 90
2018-09-14 23:00:00 17.7 23 Este 38 Este 0 1011.1 0.5 89
2018-09-14 22:00:00 18.1 26 Este 40 Este 0 1011.2 0.6 89
2018-09-14 21:00:00 18 31 Este 38 Este 0 1010.9 0.3 89
2018-09-14 20:00:00 17.6 31 Este 42 Este 0 1010.6 -0.1 87
2018-09-14 19:00:00 18.2 28 Este 37 Este 0 1010.6 -0.1 87
2018-09-14 18:00:00 18.1 27 Este 40 Este 0 1010.6 -0.1 87
2018-09-14 17:00:00 18.7 23 Este 36 Este 0 1010.7 -0.3 86
2018-09-14 16:00:00 18.6 25 Este 34 Este 0 1010.7 -0.5 86
2018-09-14 15:00:00 18.1 28 Nordeste 32 Este 0 1010.7 -0.6 87
2018-09-14 14:00:00 17.3 26 Nordeste 32 Nordeste 0 1011 0.2 88
2018-09-14 13:00:00 17 27 Nordeste 32 Nordeste 0 1011.2 0.9 89
2018-09-14 12:00:00 17.3 26 Este 37 Este 0 1011.3 1.1 92
2018-09-14 11:00:00 16.6 35 Este 44 Este 0 1010.8 1 92
2018-09-14 10:00:00 16.5 31 Nordeste 39 Nordeste 0 1010.3 0.5 92
2018-09-14 09:00:00 16.4 24 Nordeste 35 Nordeste 0 1010.2 0.5 93
2018-09-14 08:00:00 16.5 29 Nordeste 39 Nordeste 0 1009.8 -0.3 93
2018-09-14 07:00:00 16.8 30 Nordeste 37 Este 0 1009.8 -0.5 93
2018-09-14 06:00:00 16.8 28 Este 32 Nordeste 0 1009.7 -1.1 93
2018-09-14 05:00:00 16.7 28 Nordeste 36 Nordeste 0 1010.1 -0.9 92
2018-09-14 04:00:00 16.7 27 Nordeste 35 Nordeste 0 1010.3 -1 92
2018-09-14 03:00:00 16.6 26 Nordeste 37 Nordeste 0 1010.8 -0.7 92
2018-09-14 02:00:00 16.5 29 Nordeste 40 Nordeste 0 1011 -0.8 93
2018-09-14 01:00:00 16.6 24 Nordeste 36 Nordeste 0 1011.3 -0.4 93
2018-09-14 00:00:00 16.9 24 Nordeste 33 Nordeste 0 1011.5 0.1 93
2018-09-13 23:00:00 16.9 22 Nordeste 38 Nordeste 0 1011.8 0.5 92
2018-09-13 22:00:00 17 25 Nordeste 38 Nordeste 0 1011.7 0.3 91
2018-09-13 21:00:00 17.2 23 Nordeste 39 Nordeste 0 1011.4 0.1 90
2018-09-13 20:00:00 17.3 26 Nordeste 41 Nordeste 0 1011.3 -0.3 89
2018-09-13 19:00:00 17.6 25 Nordeste 38 Nordeste 0 1011.4 -0.4 88
2018-09-13 18:00:00 18.1 21 Nordeste 36 Nordeste 0 1011.3 -0.8 86
2018-09-13 17:00:00 21 13 Este 17 Este 0 1011.6 -0.8 77
2018-09-13 16:00:00 21.9 12 Este 17 Este 0 1011.8 -0.9 74
2018-09-13 15:00:00 21.5 13 Este 18 Este 0 1012.1 -0.8 75
2018-09-13 14:00:00 22 13 Este 21 Este 0 1012.4 -0.2 72
2018-09-13 13:00:00 22 12 Este 19 Este 0 1012.7 0.5 72
2018-09-13 12:00:00 21.2 13 Este 18 Este 0 1012.9 0.9 74
2018-09-13 11:00:00 20.7 10 Este 14 Este 0 1012.6 0.8 78
2018-09-13 10:00:00 19.4 10 Este 14 Este 0 1012.2 0.7 86
2018-09-13 09:00:00 18.3 10 Este 14 Este 0 1012 0.4 88
2018-09-13 08:00:00 17.6 10 Este 16 Este 0 1011.8 0 88
2018-09-13 07:00:00 17.7 13 Sudeste 16 Este 0 1011.5 -0.7 87
2018-09-13 06:00:00 17.8 13 Sudeste 18 Sudeste 0 1011.6 -0.8 87
2018-09-13 05:00:00 18 15 Sudeste 19 Sudeste 0 1011.8 -1 87
2018-09-13 04:00:00 17.9 14 Este 18 Este 0 1012.2 -0.9 87
2018-09-13 03:00:00 18.1 15 Este 25 Este 0 1012.4 -1 88
2018-09-13 02:00:00 17.9 17 Este 25 Nordeste 0 1012.8 -0.5 88
2018-09-13 01:00:00 18 19 Este 26 Nordeste 0 1013.1 0 87
2018-09-13 00:00:00 18.3 12 Nordeste 25 Este 0 1013.4 0.7 86
2018-09-12 23:00:00 19.1 20 Este 27 Este 0 1013.3 1 84
2018-09-12 22:00:00 18.6 17 Este 26 Este 0 1013.1 0.7 87
2018-09-12 21:00:00 18.3 19 Nordeste 26 Nordeste 0 1012.7 0.5 87
2018-09-12 20:00:00 18.7 17 Nordeste 23 Nordeste 0 1012.3 0 87
2018-09-12 19:00:00 19.6 13 Nordeste 22 Nordeste 0 1012.4 -0.1 85
2018-09-12 18:00:00 20.8 14 Nordeste 22 Nordeste 0 1012.2 -0.4 82
2018-09-12 17:00:00 21.1 13 Nordeste 19 Nordeste 0 1012.3 -0.4 80
2018-09-12 16:00:00 21.4 10 Nordeste 15 Nordeste 0 1012.5 -0.4 78
2018-09-12 15:00:00 21.2 9 Este 18 Sudeste 0 1012.6 -0.2 76
2018-09-12 14:00:00 22.4 13 Este 18 Este 0 1012.7 0.5 72
2018-09-12 13:00:00 21.5 12 Este 17 Este 0 1012.9 1.1 75
2018-09-12 12:00:00 20.1 12 Este 18 Este 0 1012.8 1.3 79
2018-09-12 11:00:00 19.7 14 Sudeste 18 Sudeste 0 1012.2 1.2 81
2018-09-12 10:00:00 19.3 11 Este 16 Sudeste 0 1011.8 1 83
2018-09-12 09:00:00 18.4 11 Sudeste 14 Sudeste 0 1011.5 0.8 86
2018-09-12 08:00:00 18.2 9 Sudeste 17 Sudeste 0 1011 0.5 87
2018-09-12 07:00:00 18.1 13 Sudeste 18 Este 0 1010.8 0.7 86
2018-09-12 06:00:00 17.9 14 Este 20 Sudeste 0 1010.7 0.2 85
2018-09-12 05:00:00 19.1 14 Sudeste 32 Sudeste 0 1010.5 -0.5 82
2018-09-12 04:00:00 19 20 Sudeste 29 Sudeste 0 1010.1 -1.4 84
2018-09-12 03:00:00 18.7 19 Sudeste 26 Sudeste 0 1010.5 -0.8 87
2018-09-12 02:00:00 18.9 19 Sudeste 27 Sudeste 0 1011 -0.1 88
2018-09-12 01:00:00 18.5 17 Sudeste 26 Sudeste 0 1011.5 0.7 89
2018-09-12 00:00:00 18.8 21 Sudeste 27 Sudeste 0 1011.3 1.1 89
2018-09-11 23:00:00 19 23 Sudeste 27 Sudeste 0 1011.1 1.3 89
2018-09-11 22:00:00 18.3 23 Este 31 Este 0 1010.8 1 89
2018-09-11 21:00:00 18.4 27 Este 37 Este 0 1010.2 -0.2 88
2018-09-11 20:00:00 18.7 32 Este 39 Sudeste 0 1009.8 -0.8 86
2018-09-11 19:00:00 19.1 35 Este 40 Sudeste 0 1009.8 -1.4 84
2018-09-11 18:00:00 19.2 31 Este 39 Sudeste 0 1010.4 -1.2 83
2018-09-11 17:00:00 19.4 29 Sudeste 35 Sudeste 0 1010.6 -1.6 82
2018-09-11 16:00:00 19.2 28 Este 32 Sudeste 0 1011.2 -1.4 83
2018-09-11 15:00:00 19 26 Este 32 Este 0 1011.6 -1.4 85
2018-09-11 14:00:00 19.4 28 Este 36 Sudeste 0 1012.2 -0.8 83
2018-09-11 13:00:00 18.9 28 Sudeste 35 Este 0 1012.6 -0.2 88
2018-09-11 12:00:00 18.2 27 Este 31 Sudeste 0 1013 0.3 92
2018-09-11 11:00:00 17.6 25 Este 30 Sudeste 0 1013 0.9 92
2018-09-11 10:00:00 17.1 20 Este 26 Este 0 1012.8 0.9 92
2018-09-11 09:00:00 17 17 Este 26 Este 0 1012.7 0.8 92
2018-09-11 08:00:00 16.5 21 Este 29 Este 0 1012.1 -0.1 92
2018-09-11 07:00:00 16.3 18 Este 25 Este 0 1011.9 -0.4 92
2018-09-11 06:00:00 16.9 18 Este 26 Este 0 1011.9 -0.6 91
2018-09-11 05:00:00 17.2 19 Este 29 Este 0 1012.2 -0.7 90
2018-09-11 04:00:00 17.9 25 Sudeste 36 Sudeste 0 1012.3 -1 90
2018-09-11 03:00:00 17.9 28 Sudeste 37 Sudeste 0 1012.5 -1 90
2018-09-11 02:00:00 18.1 30 Sudeste 38 Sudeste 0 1012.9 -0.5 89
2018-09-11 01:00:00 18.5 33 Sudeste 43 Sudeste 0 1013.3 0 88
2018-09-11 00:00:00 18.5 32 Sudeste 38 Este 0 1013.5 0.6 88
2018-09-10 23:00:00 18.6 33 Sudeste 42 Sudeste 0 1013.4 0.4 88
2018-09-10 22:00:00 18.7 33 Sudeste 41 Sudeste 0 1013.3 0.4 88
2018-09-10 21:00:00 18.6 27 Sudeste 37 Sudeste 0 1012.9 0 88
2018-09-10 20:00:00 18.7 29 Este 33 Sudeste 0 1013 -0.3 87
2018-09-10 19:00:00 19.2 28 Este 35 Sudeste 0 1012.9 -0.7 84
2018-09-10 18:00:00 19.7 28 Este 35 Sudeste 0 1012.9 -0.8 82
2018-09-10 17:00:00 19.8 28 Este 37 Este 0 1013.3 -0.8 79
2018-09-10 16:00:00 20 27 Este 38 Este 0 1013.6 -1 79
2018-09-10 15:00:00 20.1 29 Este 36 Este 0 1013.7 -0.9 78
2018-09-10 14:00:00 20 28 Este 34 Sudeste 0 1014.1 0 79
2018-09-10 13:00:00 19.9 20 Este 30 Este 0 1014.6 0.5 80
2018-09-10 12:00:00 18.6 15 Este 24 Este 0 1014.6 0.8 84
2018-09-10 11:00:00 18.7 22 Este 30 Sudeste 0 1014.1 0.4 83
2018-09-10 10:00:00 18.3 18 Sudeste 24 Sudeste 0 1014.1 0.8 85
2018-09-10 09:00:00 18 19 Sudeste 23 Sudeste 0 1013.8 0.7 87
2018-09-10 08:00:00 17.4 15 Este 20 Este 0 1013.7 1 88
2018-09-10 07:00:00 16.9 16 Este 22 Este 0 1013.3 0.4 87
2018-09-10 06:00:00 16.6 15 Este 30 Este 0 1013.1 0.1 85
2018-09-10 05:00:00 17 25 Este 31 Sudeste 0 1012.7 -0.7 84
2018-09-10 04:00:00 17.3 27 Este 34 Sudeste 0 1012.9 -0.6 83
2018-09-10 03:00:00 17.4 28 Sudeste 34 Sudeste 0 1013 -0.6 83
2018-09-10 02:00:00 17.2 22 Sudeste 29 Sudeste 0 1013.4 0 82
2018-09-10 01:00:00 17.8 19 Sudeste 30 Sudeste 0 1013.5 0.3 80
2018-09-10 00:00:00 18 19 Sudeste 28 Sudeste 0 1013.6 1 81
2018-09-09 23:00:00 18.1 18 Sudeste 24 Este 0 1013.4 1.3 83
2018-09-09 22:00:00 18.3 17 Este 24 Sudeste 0 1013.2 1.2 84
2018-09-09 21:00:00 18.4 18 Este 26 Este 0 1012.6 1 84
2018-09-09 20:00:00 18.7 20 Este 27 Este 0 1012.1 0.6 83
2018-09-09 19:00:00 19.4 16 Este 25 Este 0 1012 0.6 82
2018-09-09 18:00:00 20.4 16 Este 26 Este 0 1011.6 -0.2 78
2018-09-09 17:00:00 20.8 15 Este 23 Este 0 1011.5 0 78
2018-09-09 16:00:00 20.8 19 Este 23 Este 0 1011.4 0.3 79
2018-09-09 15:00:00 20.5 16 Este 22 Este 0 1011.8 0.7 80
2018-09-09 14:00:00 20.6 13 Este 21 Este 0 1011.5 0.5 80
2018-09-09 13:00:00 20.3 17 Este 20 Este 0 1011.1 0.7 82
2018-09-09 12:00:00 20.4 14 Este 19 Sudeste 0 1011.1 1.2 85
2018-09-09 11:00:00 19.8 11 Este 17 Sudeste 0 1011 1.6 86
2018-09-09 10:00:00 18.4 13 Este 15 Sudeste 0 1010.4 1.5 88
2018-09-09 09:00:00 18.5 12 Sudeste 14 Sudeste 0 1009.9 1.4 89
2018-09-09 08:00:00 18.3 12 Este 17 Sudeste 0 1009.4 1.2 88
2018-09-09 07:00:00 18.4 13 Este 18 Sudeste 0 1008.9 0.9 88
2018-09-09 06:00:00 18.5 13 Sudeste 19 Este 0 1008.5 0.5 88
2018-09-09 05:00:00 18.4 8 Este 20 Este 0 1008.2 -0.1 88
2018-09-09 04:00:00 18.5 14 Este 19 Sudeste 0 1008 -0.1 88
2018-09-09 03:00:00 17.9 15 Este 19 Sudeste 0 1008 0.1 87
2018-09-09 02:00:00 18.1 15 Sudeste 24 Sudeste 0 1008.3 0.9 87
2018-09-09 01:00:00 17.8 20 Este 23 Este 0 1008.1 1 87
2018-09-09 00:00:00 18 18 Este 28 Sudeste 0 1007.9 1.7 85
2018-09-08 23:00:00 18.6 22 Sudeste 30 Sudeste 0 1007.4 1.9 85
2018-09-08 22:00:00 18.5 24 Sudeste 37 Sudeste 0 1007.1 2 84
2018-09-08 21:00:00 18.4 30 Sudeste 37 Sudeste 0 1006.2 1.5 83
2018-09-08 20:00:00 18.5 33 Este 39 Este 0 1005.5 0.6 81
2018-09-08 19:00:00 19 33 Sudeste 39 Sudeste 0 1005.1 0.1 80
2018-09-08 18:00:00 19.4 31 Sudeste 38 Sudeste 0 1004.7 -0.5 78
2018-09-08 17:00:00 19.6 31 Sudeste 36 Sudeste 0 1004.9 -0.3 75
2018-09-08 16:00:00 19.4 31 Este 37 Sudeste 0 1005 -0.8 72
2018-09-08 15:00:00 19.5 29 Este 38 Este 0 1005.2 -0.8 72
2018-09-08 14:00:00 19.5 28 Sudeste 37 Sudeste 0 1005.2 -0.2 70
2018-09-08 13:00:00 20.3 27 Sudeste 39 Sudeste 0 1005.8 0.8 68
2018-09-08 12:00:00 18.5 32 Este 38 Este 0 1006 1.2 76
2018-09-08 11:00:00 17.9 29 Este 38 Este 0 1005.4 1.1 80
2018-09-08 10:00:00 17 30 Este 40 Este 0 1005 0.9 83
2018-09-08 09:00:00 16.3 28 Este 39 Este 0 1004.8 0.2 86
2018-09-08 08:00:00 15.9 30 Este 43 Sudeste 0 1004.3 -0.8 85
2018-09-08 07:00:00 16.5 33 Sudeste 41 Sudeste 0 1004.1 -1.3 85
2018-09-08 06:00:00 16.6 31 Sudeste 38 Sudeste 0 1004.6 -1 86
2018-09-08 05:00:00 16.7 32 Sudeste 39 Sudeste 0 1005.1 -1.1 86
2018-09-08 04:00:00 16.9 34 Sudeste 41 Este 0 1005.4 -0.9 86
2018-09-08 03:00:00 16.9 34 Sudeste 40 Sudeste 0 1005.6 -1 88
2018-09-08 02:00:00 16.9 31 Este 44 Sudeste 0 1006.2 -0.6 87
2018-09-08 01:00:00 17.3 37 Este 44 Sudeste 0 1006.3 -0.7 87
2018-09-08 00:00:00 17.4 35 Este 46 Este 0 1006.6 0.2 86
2018-09-07 23:00:00 17.1 27 Este 46 Este 0 1006.8 0.4 86
2018-09-07 22:00:00 17.2 28 Este 45 Este 0 1007 0.6 85
2018-09-07 21:00:00 17.5 30 Este 42 Este 0 1006.4 -0.2 84
2018-09-07 20:00:00 18 28 Este 38 Este 0 1006.4 -0.4 82
2018-09-07 19:00:00 18.9 24 Este 34 Sudeste 0 1006.4 -0.6 78
2018-09-07 18:00:00 18.9 27 Este 37 Sudeste 0 1006.6 -0.8 77
2018-09-07 17:00:00 19.3 30 Este 39 Sudeste 0 1006.8 -1 74
2018-09-07 16:00:00 19.6 31 Sudeste 37 Sudeste 0 1007 -1 71
2018-09-07 15:00:00 19.1 28 Este 36 Sudeste 0 1007.4 -0.9 74
2018-09-07 14:00:00 19.3 28 Este 38 Sudeste 0 1007.8 -0.3 74
2018-09-07 13:00:00 19 31 Este 39 Sudeste 0 1008 -0.1 73
2018-09-07 12:00:00 17.7 30 Este 38 Este 0 1008.3 0.4 77
2018-09-07 11:00:00 17.5 31 Este 37 Este 0 1008.1 0.4 77
2018-09-07 10:00:00 17.2 32 Este 38 Sudeste 0 1008.1 0.4 79
2018-09-07 09:00:00 17 33 Este 40 Sudeste 0 1007.9 0.3 78
2018-09-07 08:00:00 17 33 Sudeste 38 Este 0 1007.7 -0.1 78
2018-09-07 07:00:00 16.5 26 Este 45 Este 0 1007.7 -0.2 80
2018-09-07 06:00:00 16.8 38 Este 48 Este 0 1007.6 -0.6 77
2018-09-07 05:00:00 16.5 36 Este 49 Este 0 1007.8 -0.9 78
2018-09-07 04:00:00 16.4 36 Este 49 Este 0 1007.9 -1 77
2018-09-07 03:00:00 16.3 36 Este 46 Este 0 1008.2 -1 78
2018-09-07 02:00:00 16 36 Este 41 Este 0 1008.7 -0.8 81
2018-09-07 01:00:00 15.7 34 Este 40 Este 0 1008.9 -0.6 83
2018-09-07 00:00:00 15.7 33 Este 39 Este 0 1009.2 0.1 84
2018-09-06 23:00:00 16.1 31 Este 39 Este 0 1009.5 0.4 84
2018-09-06 22:00:00 15.9 32 Este 38 Nordeste 0 1009.5 0.4 85
2018-09-06 21:00:00 16.1 29 Este 35 Nordeste 0 1009.1 -0.1 84
2018-09-06 20:00:00 16.3 29 Nordeste 35 Nordeste 0 1009.1 -0.2 83
2018-09-06 19:00:00 16.5 27 Nordeste 34 Nordeste 0 1009.1 -0.5 83
2018-09-06 18:00:00 16.8 26 Nordeste 37 Nordeste 0 1009.2 -0.6 81
2018-09-06 17:00:00 16.9 24 Nordeste 33 Nordeste 0 1009.3 -0.5 81
2018-09-06 16:00:00 17.1 24 Nordeste 35 Nordeste 0 1009.6 -0.3 80
2018-09-06 15:00:00 17.1 26 Nordeste 39 Nordeste 0 1009.8 0 81
2018-09-06 14:00:00 17 28 Nordeste 35 Nordeste 0 1009.8 0.3 80
2018-09-06 13:00:00 17.2 25 Nordeste 33 Nordeste 0 1009.9 0.9 81
2018-09-06 12:00:00 17.2 23 Nordeste 39 Nordeste 0 1009.8 1.4 79
2018-09-06 11:00:00 17 25 Nordeste 41 Nordeste 0 1009.5 1.5 81
2018-09-06 10:00:00 16.8 31 Nordeste 46 Nordeste 0 1009 1.3 81
2018-09-06 09:00:00 16.5 31 Nordeste 45 Nordeste 0 1008.4 0.8 85
2018-09-06 08:00:00 16.8 27 Nordeste 38 Nordeste 0 1008 0.2 87
2018-09-06 07:00:00 16.8 23 Este 40 Nordeste 0 1007.7 -0.3 88
2018-09-06 06:00:00 16.9 22 Este 35 Este 0 1007.6 -0.5 89
2018-09-06 05:00:00 17.4 13 Este 18 Este 0 1007.8 -0.5 86
2018-09-06 04:00:00 17.2 13 Este 28 Este 0 1008 -0.5 86
2018-09-06 03:00:00 17 17 Este 34 Este 0 1008.1 -0.6 87
2018-09-06 02:00:00 16.9 14 Nordeste 27 Este 0 1008.3 0 89
2018-09-06 01:00:00 16.8 21 Este 28 Este 0 1008.5 0.5 90
2018-09-06 00:00:00 16.7 19 Este 28 Este 0 1008.7 1.5 90
2018-09-05 23:00:00 16.8 23 Este 30 Este 0 1008.3 1.1 89
2018-09-05 22:00:00 17 18 Este 23 Este 0 1008 0.9 86
2018-09-05 21:00:00 17 14 Este 31 Nordeste 0 1007.2 0 86
2018-09-05 20:00:00 17.3 25 Nordeste 35 Nordeste 0 1007.2 -0.1 86
2018-09-05 19:00:00 17.6 24 Nordeste 32 Nordeste 0 1007.1 -0.4 85
2018-09-05 18:00:00 17.3 23 Nordeste 32 Nordeste 0 1007.2 -0.6 87
2018-09-05 17:00:00 17.5 22 Nordeste 32 Nordeste 0 1007.3 -0.3 87
2018-09-05 16:00:00 17.3 8 Nordeste 19 Este 0 1007.5 -0.3 87
2018-09-05 15:00:00 17.4 14 Este 21 Este 0 1007.8 0.2 86
2018-09-05 14:00:00 16.9 8 Este 20 Nordeste 0 1007.6 0.8 86
2018-09-05 13:00:00 16.7 16 Este 27 Este 0 1007.8 1.5 88
2018-09-05 12:00:00 16.9 16 Nordeste 39 Nordeste 0 1007.6 1.5 87
2018-09-05 11:00:00 15.5 27 Nordeste 46 Nordeste 0 1006.8 2 83
2018-09-05 10:00:00 15.8 26 Nordeste 47 Nordeste 0 1006.3 1.4 87
2018-09-05 09:00:00 15.7 32 Nordeste 58 Este 0 1006.1 2.3 91
2018-09-05 08:00:00 16.1 32 Este 65 Este 0 1004.8 -0.9 91
2018-09-05 07:00:00 16.4 26 Sudeste 55 Este 0 1004.9 -0.1 90
2018-09-05 06:00:00 15.7 48 Este 55 Este 0 1003.8 -1.7 90
2018-09-05 05:00:00 16 28 Este 51 Este 0 1005.7 0.5 90
2018-09-05 04:00:00 17.2 46 Nordeste 55 Nordeste 0 1005 -0.1 91
2018-09-05 03:00:00 17.3 35 Este 40 Nordeste 0 1005.5 0.1 90
2018-09-05 02:00:00 17 35 Nordeste 44 Nordeste 0 1005.2 -0.2 90
2018-09-05 01:00:00 17 38 Nordeste 45 Nordeste 0 1005.1 -0.1 90
2018-09-05 00:00:00 17.1 41 Nordeste 48 Nordeste 0 1005.4 0.9 90
2018-09-04 23:00:00 17 41 Nordeste 49 Nordeste 0 1005.4 1 90
2018-09-04 22:00:00 17 40 Nordeste 49 Nordeste 0 1005.2 0.8 90
2018-09-04 21:00:00 17 39 Nordeste 45 Nordeste 0 1004.5 0.3 90
2018-09-04 20:00:00 17.3 37 Nordeste 49 Este 0 1004.4 -0.1 90
2018-09-04 19:00:00 18.4 37 Este 52 Este 0 1004.4 -0.7 91
2018-09-04 18:00:00 18.3 37 Este 48 Este 0 1004.2 -1.2 88
2018-09-04 17:00:00 18.9 32 Nordeste 42 Este 0 1004.5 -0.9 85
2018-09-04 16:00:00 19.1 8 Este 19 Este 0 1005.1 -0.6 79
2018-09-04 15:00:00 19.9 13 Este 22 Este 0 1005.4 0 74
2018-09-04 14:00:00 19.4 17 Este 23 Este 0 1005.4 0.2 76
2018-09-04 13:00:00 19.6 17 Este 35 Este 0 1005.7 0.8 75
2018-09-04 12:00:00 19 29 Este 37 Este 0 1005.4 0.7 77
2018-09-04 11:00:00 18.1 31 Este 39 Este 0 1005.2 0.6 81
2018-09-04 10:00:00 17.5 32 Este 40 Este 0 1004.9 0.5 82
2018-09-04 09:00:00 17.3 33 Este 40 Este 0 1004.7 0.3 81
2018-09-04 08:00:00 17.3 32 Este 41 Este 0 1004.6 0.1 81
2018-09-04 07:00:00 17.3 32 Este 39 Este 0 1004.4 -0.3 84
2018-09-04 06:00:00 16.7 30 Este 39 Este 0 1004.4 -0.7 86
2018-09-04 05:00:00 16.7 31 Este 37 Este 0 1004.5 -0.9 87
2018-09-04 04:00:00 16.8 33 Este 40 Este 0 1004.7 -1.1 86
2018-09-04 03:00:00 17.2 35 Este 45 Este 0 1005.1 -0.8 85
2018-09-04 02:00:00 17.5 37 Este 46 Este 0 1005.4 -0.5 84
2018-09-04 01:00:00 17.6 39 Este 47 Este 0 1005.8 0.4 83
2018-09-04 00:00:00 17.6 41 Este 50 Este 0 1005.9 1.1 81
2018-09-03 23:00:00 17.7 41 Este 49 Este 0 1005.9 1.5 81
2018-09-03 22:00:00 17.7 41 Este 48 Este 0 1005.4 0.9 80
2018-09-03 21:00:00 18.2 44 Este 50 Este 0 1004.8 0.5 78
2018-09-03 20:00:00 18.4 42 Este 53 Este 0 1004.4 0.3 78
2018-09-03 19:00:00 19.1 39 Este 50 Este 0 1004.5 0.6 76
2018-09-03 18:00:00 19.6 41 Este 51 Este 0 1004.3 0.3 74
2018-09-03 17:00:00 19.7 41 Este 54 Este 0 1004.1 -0.3 75
2018-09-03 16:00:00 20.2 44 Este 58 Este 0 1003.9 -0.9 76
2018-09-03 15:00:00 20.3 42 Este 54 Este 0 1004 -1.2 77
2018-09-03 14:00:00 20.1 35 Este 50 Este 0 1004.4 -0.4 78
2018-09-03 13:00:00 21.2 27 Este 41 Este 0 1004.8 0.5 75
2018-09-03 12:00:00 20.5 30 Este 42 Sudeste 0 1005.2 1.5 78
2018-09-03 11:00:00 20.1 30 Este 41 Este 0 1004.8 1.5 81
2018-09-03 10:00:00 19.7 33 Este 45 Este 0 1004.3 0.7 83
2018-09-03 09:00:00 19 38 Este 48 Este 0 1003.7 -0.1 85
2018-09-03 08:00:00 18.4 38 Este 50 Sudeste 0 1003.3 0.1 85
2018-09-03 07:00:00 18.5 30 Este 39 Este 0 1003.6 0 84
2018-09-03 06:00:00 18.5 28 Este 44 Este 0 1003.8 -0.3 84
2018-09-03 05:00:00 18.1 35 Este 48 Este 0 1003.2 -1.1 83
2018-09-03 04:00:00 18.1 31 Este 44 Este 0 1003.6 -0.8 82
2018-09-03 03:00:00 18.5 38 Este 44 Este 0 1004.1 -0.1 81
2018-09-03 02:00:00 18.5 29 Este 39 Este 0 1004.3 0.3 84
2018-09-03 01:00:00 19.1 33 Este 45 Este 0 1004.4 0.6 82
2018-09-03 00:00:00 19.3 39 Sudeste 46 Este 0 1004.2 1 81
2018-09-02 23:00:00 19.3 41 Sudeste 48 Sudeste 0 1004 0.5 80
2018-09-02 22:00:00 19.6 43 Sudeste 52 Sudeste 0 1003.8 0.2 79
2018-09-02 21:00:00 19.9 45 Sudeste 53 Sudeste 0 1003.2 -0.5 75
2018-09-02 20:00:00 20.5 42 Sudeste 54 Este 0 1003.5 -0.1 72
2018-09-02 19:00:00 20.6 40 Sudeste 52 Sudeste 0 1003.6 -0.2 71
2018-09-02 18:00:00 20.6 45 Sudeste 52 Sudeste 0 1003.7 -0.5 70
2018-09-02 17:00:00 20.6 44 Sudeste 50 Sudeste 0 1003.6 -0.6 72
2018-09-02 16:00:00 21.2 44 Sudeste 50 Sudeste 0 1003.8 -0.6 71
2018-09-02 15:00:00 20.8 40 Sudeste 47 Este 0 1004.2 -0.3 73
2018-09-02 14:00:00 20.5 40 Este 46 Este 0 1004.2 0 78
2018-09-02 13:00:00 20.3 38 Este 41 Este 0 1004.4 0.2 81
2018-09-02 12:00:00 20.1 35 Sudeste 44 Este 0 1004.5 0.5 82
2018-09-02 11:00:00 19.7 37 Sudeste 43 Este 0 1004.2 0.5 84
2018-09-02 10:00:00 19.4 31 Sudeste 36 Sudeste 0 1004.2 0.6 85
2018-09-02 09:00:00 18.2 31 Sudeste 39 Este 0 1004 0.4 87
2018-09-02 08:00:00 17.6 36 Este 48 Este 0 1003.7 -0.5 86
2018-09-02 07:00:00 17.6 36 Sudeste 49 Sudeste 0 1003.6 -1.3 88
2018-09-02 06:00:00 18 45 Este 54 Sudeste 0 1003.6 -1.8 85
2018-09-02 05:00:00 18.3 44 Sudeste 54 Sudeste 0 1004.2 -1.6 85
2018-09-02 04:00:00 18.2 34 Sudeste 49 Sudeste 0 1004.9 -1.4 85
2018-09-02 03:00:00 18.1 41 Sudeste 48 Sudeste 0 1005.4 -1.2 86
2018-09-02 02:00:00 18.5 36 Sudeste 46 Sudeste 0 1005.8 -1.1 86
2018-09-02 01:00:00 18.8 36 Sudeste 47 Sudeste 0 1006.3 -0.6 86
2018-09-02 00:00:00 19.1 37 Sudeste 48 Sudeste 0 1006.6 -0.2 86
2018-09-01 23:00:00 19.2 36 Sudeste 49 Sudeste 0 1006.9 0 85
2018-09-01 22:00:00 19.4 37 Sudeste 50 Sudeste 0 1006.9 -0.3 84
2018-09-01 21:00:00 19.7 41 Sudeste 50 Sudeste 0 1006.8 -0.5 83
2018-09-01 20:00:00 20.3 39 Sudeste 51 Sudeste 0 1006.9 -0.6 80
2018-09-01 19:00:00 20.8 37 Sudeste 49 Sudeste 0 1007.2 -0.8 77
2018-09-01 18:00:00 21 39 Sudeste 51 Sudeste 0 1007.3 -1 76
2018-09-01 17:00:00 21.2 44 Sudeste 51 Sudeste 0 1007.5 -0.9 76
2018-09-01 16:00:00 21.4 42 Sudeste 51 Sudeste 0 1008 -0.9 76
2018-09-01 15:00:00 21.6 41 Sudeste 48 Este 0 1008.3 -1 75
2018-09-01 14:00:00 21.4 40 Sudeste 48 Este 0 1008.4 -0.9 74
2018-09-01 13:00:00 21.1 41 Sudeste 48 Sudeste 0 1008.9 -0.2 76
2018-09-01 12:00:00 20.2 40 Sudeste 48 Sudeste 0 1009.3 0.5 80
2018-09-01 11:00:00 19.6 41 Este 50 Sudeste 0 1009.3 0.6 83
2018-09-01 10:00:00 18.9 38 Este 46 Sudeste 0 1009.1 0.6 85
2018-09-01 09:00:00 18.9 38 Este 44 Sudeste 0 1008.8 0.2 87
2018-09-01 08:00:00 18.9 37 Sudeste 45 Este 0 1008.7 -0.3 87
2018-09-01 07:00:00 19.1 33 Sudeste 46 Sudeste 0 1008.5 -0.9 87
2018-09-01 06:00:00 19.2 37 Sudeste 46 Sudeste 0 1008.6 -1.1 87
2018-09-01 05:00:00 19.1 32 Este 39 Este 0 1009 -0.9 88
2018-09-01 04:00:00 19 28 Este 35 Este 0 1009.4 -0.8 88
2018-09-01 03:00:00 19 26 Este 36 Este 0 1009.7 -0.7 88
2018-09-01 02:00:00 19.1 29 Este 34 Este 0 1009.9 -0.6 88
2018-09-01 01:00:00 19 25 Este 34 Este 0 1010.2 0 88
2018-09-01 00:00:00 19.2 28 Este 36 Este 0 1010.4 0.3 88
2018-08-31 23:00:00 19.2 26 Este 38 Este 0 1010.5 0.4 87
2018-08-31 22:00:00 19.1 28 Este 36 Este 0 1010.2 0 87
2018-08-31 21:00:00 19.7 23 Este 36 Este 0 1010.1 -0.4 84
2018-08-31 20:00:00 20.5 23 Este 33 Este 0 1010.1 -0.5 80
2018-08-31 19:00:00 21 23 Este 34 Este 0 1010.2 -0.4 78
2018-08-31 18:00:00 21.6 22 Este 33 Este 0 1010.5 -0.1 77
2018-08-31 17:00:00 21.9 24 Este 32 Este 0 1010.6 0 76
2018-08-31 16:00:00 21.8 22 Este 32 Este 0 1010.6 -0.1 77
2018-08-31 15:00:00 22.4 17 Este 28 Este 0 1010.6 -0.4 73
2018-08-31 14:00:00 22.2 20 Este 31 Este 0 1010.6 -0.3 71
2018-08-31 13:00:00 21.6 28 Este 31 Este 0 1010.7 -0.2 73
2018-08-31 12:00:00 21.6 23 Sudeste 29 Este 0 1011 0 73
2018-08-31 11:00:00 20.9 20 Este 26 Este 0 1010.9 0.2 78
2018-08-31 10:00:00 20.7 15 Este 22 Este 0 1010.9 0.6 81
2018-08-31 09:00:00 19.5 16 Este 21 Sudeste 0 1011 0.7 85
2018-08-31 08:00:00 18.4 12 Este 17 Este 0 1010.7 0.2 87
2018-08-31 07:00:00 18.5 13 Este 21 Este 0 1010.3 -0.4 86
2018-08-31 06:00:00 18.5 16 Este 23 Este 0 1010.3 -0.6 85
2018-08-31 05:00:00 18.6 19 Este 24 Este 0 1010.5 -0.6 84
2018-08-31 04:00:00 18.5 14 Este 22 Este 0 1010.7 -0.8 83
2018-08-31 03:00:00 18.3 17 Este 22 Este 0 1010.9 -0.9 83
2018-08-31 02:00:00 18.3 15 Este 21 Este 0 1011.1 -0.8 83
2018-08-31 01:00:00 18.1 13 Este 21 Este 0 1011.5 -0.2 80
2018-08-31 00:00:00 18.3 17 Este 26 Este 0 1011.8 0.3 81
2018-08-30 23:00:00 18.6 22 Este 30 Este 0 1011.9 0.2 81
2018-08-30 22:00:00 18.6 26 Este 30 Este 0 1011.7 0 81
2018-08-30 21:00:00 18.9 23 Este 31 Nordeste 0 1011.5 -0.1 80
2018-08-30 20:00:00 19.4 22 Nordeste 28 Este 0 1011.7 0.1 73
2018-08-30 19:00:00 20.9 17 Este 26 Este 0 1011.7 -0.2 67
2018-08-30 18:00:00 20.8 21 Este 27 Este 0 1011.6 -0.7 65
2018-08-30 17:00:00 21.3 19 Este 24 Este 0 1011.6 -0.6 65
2018-08-30 16:00:00 21.7 13 Este 23 Este 0 1011.9 -0.6 67
2018-08-30 15:00:00 21.8 12 Este 21 Este 0 1012.3 -0.2 64
2018-08-30 14:00:00 21.7 11 Este 16 Este 0 1012.2 -0.2 63
2018-08-30 13:00:00 21.3 4 Nordeste 9 Norte 0 1012.5 0.3 64
2018-08-30 12:00:00 20.3 3 Oeste 8 Norte 0 1012.5 0.4 70
2018-08-30 11:00:00 19.2 3 Oeste 8 Sudoeste 0 1012.4 0.7 71
2018-08-30 10:00:00 18.2 5 Sudoeste 7 Sudoeste 0.2 1012.2 0.6 72
2018-08-30 09:00:00 16.6 7 Oeste 12 Oeste 0 1012.1 0.6 69
2018-08-30 08:00:00 16.2 7 Oeste 11 Oeste 0 1011.7 0 68
2018-08-30 07:00:00 15.5 9 Oeste 13 Oeste 0 1011.6 -0.5 71
2018-08-30 06:00:00 15.8 8 Sudoeste 9 Oeste 0 1011.5 -1.2 71
2018-08-30 05:00:00 16.3 6 Sudoeste 19 Sur 0 1011.7 -1.4 67
2018-08-30 04:00:00 15.8 13 Sur 16 Sur 0 1012.1 -1.4 73
2018-08-30 03:00:00 16.5 9 Sudoeste 12 Sudoeste 0 1012.7 -0.9 70
2018-08-30 02:00:00 16.2 5 Sudoeste 11 Sudoeste 0 1013.1 -0.6 72
2018-08-30 01:00:00 17.1 4 Oeste 14 Noroeste 0 1013.5 0 73
2018-08-30 00:00:00 17.9 12 Noroeste 23 Noroeste 0 1013.6 0.8 65
2018-08-29 23:00:00 18.1 11 Noroeste 21 Noroeste 0 1013.7 1.2 68
2018-08-29 22:00:00 18.3 11 Norte 20 Noroeste 0 1013.5 1.1 74
2018-08-29 21:00:00 18.2 12 Noroeste 21 Noroeste 0 1012.8 0.3 72
2018-08-29 20:00:00 18.2 9 Noroeste 23 Noroeste 0 1012.5 0.3 71
2018-08-29 19:00:00 18.6 12 Noroeste 23 Noroeste 0 1012.4 0.3 73
2018-08-29 18:00:00 18.8 16 Noroeste 28 Oeste 0 1012.5 0.4 78
2018-08-29 17:00:00 19.2 22 Oeste 28 Oeste 0 1012.2 0.3 76
2018-08-29 16:00:00 19 22 Oeste 29 Oeste 0 1012.1 0.3 77
2018-08-29 15:00:00 20 18 Oeste 30 Oeste 0 1012.1 0.9 76
2018-08-29 14:00:00 20.1 24 Oeste 31 Oeste 0 1011.9 1.1 75
2018-08-29 13:00:00 19.5 25 Oeste 30 Oeste 0 1011.8 1.3 78
2018-08-29 12:00:00 19 27 Oeste 30 Oeste 0 1011.2 1 78
2018-08-29 11:00:00 18.5 23 Oeste 31 Oeste 0 1010.8 1 80
2018-08-29 10:00:00 17.2 26 Oeste 31 Sudoeste 0 1010.5 0.9 82
2018-08-29 09:00:00 16.4 24 Oeste 28 Oeste 0 1010.2 0.9 84
2018-08-29 08:00:00 15.7 25 Oeste 38 Oeste 0 1009.8 0.8 86
2018-08-29 07:00:00 15.4 31 Oeste 34 Oeste 0 1009.6 0.7 87
2018-08-29 06:00:00 15.5 29 Oeste 32 Oeste 0 1009.3 0.8 89
2018-08-29 05:00:00 16.1 27 Oeste 33 Oeste 0 1009 1 90
2018-08-29 04:00:00 16.5 27 Oeste 37 Oeste 0 1008.9 1.7 91
2018-08-29 03:00:00 16.6 24 Oeste 35 Oeste 0 1008.5 1.9 91
2018-08-29 02:00:00 16.9 23 Oeste 41 Noroeste 0 1008 1.4 91
2018-08-29 01:00:00 17.8 34 Noroeste 43 Noroeste 0 1007.2 1.3 91
2018-08-29 00:00:00 18.4 38 Noroeste 42 Noroeste 0 1006.6 1.7 90
2018-08-28 23:00:00 18.2 28 Oeste 37 Oeste 0 1006.6 2.3 88
2018-08-28 22:00:00 18.8 23 Oeste 36 Oeste 0 1005.9 1.7 84
2018-08-28 21:00:00 18.6 35 Oeste 42 Oeste 0 1004.9 1.3 82
2018-08-28 20:00:00 19.2 27 Oeste 33 Oeste 0 1004.3 0.8 81
2018-08-28 19:00:00 20 19 Oeste 35 Oeste 0 1004.2 0.7 75
2018-08-28 18:00:00 20.9 16 Oeste 21 Oeste 0 1003.6 0.4 75
2018-08-28 17:00:00 20.9 11 Oeste 17 Oeste 0 1003.5 0.6 73
2018-08-28 16:00:00 21.4 12 Sudoeste 22 Noroeste 0 1003.5 0.9 70
2018-08-28 15:00:00 22.1 7 Oeste 21 Noroeste 0 1003.2 0.8 62
2018-08-28 14:00:00 23.5 8 Oeste 21 Oeste 0 1002.9 1 63
2018-08-28 13:00:00 22.2 9 Oeste 12 Oeste 0 1002.6 1 78
2018-08-28 12:00:00 20.9 8 Oeste 31 Este 0 1002.4 0.4 85
2018-08-28 11:00:00 19.1 18 Sudeste 34 Sudeste 0 1001.9 -0.5 89
2018-08-28 10:00:00 18.3 29 Este 38 Este 0 1001.6 -0.9 90
2018-08-28 09:00:00 17.9 23 Este 39 Sudeste 0 1002 -0.8 87
2018-08-28 08:00:00 18.4 33 Sudeste 42 Sudeste 0 1002.4 -1.1 88
2018-08-28 07:00:00 18.9 20 Sudeste 47 Este 0 1002.5 -1.1 89
2018-08-28 06:00:00 19.2 33 Este 38 Este 0 1002.8 -0.7 88
2018-08-28 05:00:00 19.3 19 Este 34 Sudeste 0 1003.5 0 87
2018-08-28 04:00:00 20.1 31 Sudeste 39 Sudeste 0 1003.6 0 85
2018-08-28 03:00:00 20.1 32 Sudeste 42 Sudeste 0 1003.5 -0.3 86
2018-08-28 02:00:00 20 35 Sudeste 40 Sudeste 0 1003.5 -0.7 85
2018-08-28 01:00:00 19.9 33 Sudeste 38 Sudeste 0 1003.6 -0.5 84
2018-08-28 00:00:00 19.8 34 Sudeste 41 Sudeste 0 1003.8 -0.1 83
2018-08-27 23:00:00 19.8 30 Sudeste 45 Sudeste 0 1004.2 -0.1 83
2018-08-27 22:00:00 19.8 33 Sudeste 44 Sudeste 0 1004.1 -1.1 85
2018-08-27 21:00:00 19.5 34 Sudeste 40 Sudeste 0 1003.9 -1.7 84
2018-08-27 20:00:00 19.3 31 Este 40 Este 0 1004.3 -1.3 85
2018-08-27 19:00:00 20.4 20 Este 29 Este 0 1005.2 -0.6 84
2018-08-27 18:00:00 19.6 22 Este 39 Este 0 1005.6 -0.7 87
2018-08-27 17:00:00 20.4 28 Este 37 Este 0 1005.6 -1 84
2018-08-27 16:00:00 20.4 22 Este 32 Este 0 1005.8 -0.7 84
2018-08-27 15:00:00 20.7 12 Este 20 Este 0 1006.3 -0.2 78
2018-08-27 14:00:00 21.5 14 Este 19 Este 0 1006.6 0.4 80
2018-08-27 13:00:00 20.7 14 Este 19 Nordeste 0 1006.5 0.5 85
2018-08-27 12:00:00 19.8 11 Nordeste 16 Nordeste 0 1006.5 0.8 85
2018-08-27 11:00:00 20 12 Este 14 Este 0 1006.2 0.8 82
2018-08-27 10:00:00 19.5 10 Este 12 Este 0 1006 0.8 84
2018-08-27 09:00:00 18.9 10 Sudeste 11 Este 0 1005.7 0.5 86
2018-08-27 08:00:00 18.4 3 Nordeste 6 Este 0 1005.4 0 87
2018-08-27 07:00:00 18.8 5 Este 7 Este 0 1005.2 -0.2 87
2018-08-27 06:00:00 18.6 2 Norte 5 Nordeste 0 1005.2 -0.5 85
2018-08-27 05:00:00 18.8 3 Noroeste 11 Sur 0 1005.4 -0.6 85
2018-08-27 04:00:00 18.7 3 Sur 7 Sur 0 1005.4 -0.8 84
2018-08-27 03:00:00 18.8 0 Calma 10 Sudoeste 0 1005.7 -0.5 83
2018-08-27 02:00:00 18.7 9 Oeste 13 Oeste 0 1006 -0.2 83
2018-08-27 01:00:00 18.4 12 Oeste 14 Oeste 0 1006.2 0.2 80
2018-08-27 00:00:00 18.7 10 Oeste 14 Oeste 0 1006.2 0.4 76
2018-08-26 23:00:00 19.8 8 Sudoeste 14 Oeste 0 1006.2 0.7 77
2018-08-26 22:00:00 19 10 Sudoeste 24 Oeste 0 1006 0.3 79
2018-08-26 21:00:00 20.1 18 Oeste 26 Oeste 0 1005.8 0.1 68
2018-08-26 20:00:00 21.4 17 Oeste 22 Oeste 0 1005.5 -0.5 59
2018-08-26 19:00:00 21.8 12 Oeste 19 Oeste 0 1005.7 -0.5 55
2018-08-26 18:00:00 23.4 12 Oeste 16 Oeste 0 1005.7 -0.7 57
2018-08-26 17:00:00 23.8 13 Oeste 17 Oeste 0 1006 -0.4 57
2018-08-26 16:00:00 23 12 Oeste 15 Oeste 0 1006.2 -0.1 61
2018-08-26 15:00:00 23.2 13 Oeste 23 Oeste 0 1006.4 0 63
2018-08-26 14:00:00 20.8 23 Oeste 27 Oeste 0 1006.4 -0.3 69
2018-08-26 13:00:00 20.4 5 Nordeste 20 Este 0 1006.3 -0.6 62
2018-08-26 12:00:00 20.7 13 Este 18 Este 0 1006.4 -0.3 64
2018-08-26 11:00:00 19.8 8 Sudeste 15 Sudeste 0 1006.7 0.1 67
2018-08-26 10:00:00 17.1 3 Sudoeste 8 Oeste 0 1006.9 0.4 76
2018-08-26 09:00:00 16.2 6 Oeste 7 Oeste 0 1006.7 0.3 80
2018-08-26 08:00:00 15.6 4 Oeste 7 Oeste 0 1006.6 -0.1 82
2018-08-26 07:00:00 15.8 3 Oeste 7 Oeste 0 1006.5 -0.6 82
2018-08-26 06:00:00 15.6 5 Oeste 13 Sudeste 0 1006.4 -1.4 81
2018-08-26 05:00:00 16 10 Sudeste 15 Sudeste 0 1006.7 -1.6 80
2018-08-26 04:00:00 16.4 13 Sudeste 15 Sudeste 0 1007.1 -1.7 79
2018-08-26 03:00:00 16.6 12 Sudeste 15 Este 0 1007.8 -1.4 76
2018-08-26 02:00:00 16.6 14 Este 17 Este 0 1008.3 -1 76
2018-08-26 01:00:00 16.8 14 Este 17 Este 0 1008.8 -0.4 76
2018-08-26 00:00:00 16.8 13 Este 18 Este 0 1009.2 0.2 76
2018-08-25 23:00:00 17 15 Este 17 Este 0 1009.3 0.3 76
2018-08-25 22:00:00 17.4 14 Este 16 Este 0 1009.2 0.1 77
2018-08-25 21:00:00 18.2 10 Sudeste 13 Sudeste 0 1009 -0.3 73
2018-08-25 20:00:00 19.4 7 Nordeste 14 Nordeste 0 1009 -0.7 68
2018-08-25 19:00:00 21.6 6 Oeste 13 Oeste 0 1009.1 -1 63
2018-08-25 18:00:00 23 10 Oeste 14 Oeste 0 1009.3 -1.1 59
2018-08-25 17:00:00 23.7 12 Oeste 15 Noroeste 0 1009.7 -1 55
2018-08-25 16:00:00 23.1 13 Oeste 15 Oeste 0 1010.1 -1 58
2018-08-25 15:00:00 21.7 9 Oeste 12 Oeste 0 1010.4 -0.8 58
2018-08-25 14:00:00 21.7 9 Oeste 11 Oeste 0 1010.7 -0.5 57
2018-08-25 13:00:00 20.8 7 Oeste 9 Sudoeste 0 1011.1 0.2 61
2018-08-25 12:00:00 19.8 4 Oeste 9 Sudoeste 0 1011.2 0.3 64
2018-08-25 11:00:00 18.4 6 Oeste 8 Oeste 0 1011.2 0.7 67
2018-08-25 10:00:00 18 3 Oeste 6 Sudoeste 0 1010.9 0.7 64
2018-08-25 09:00:00 16.6 4 Oeste 7 Sudoeste 0 1010.9 0.3 69
2018-08-25 08:00:00 15.9 5 Oeste 8 Oeste 0 1010.5 -0.5 72
2018-08-25 07:00:00 15.6 5 Sudoeste 7 Nordeste 0 1010.2 -0.9 74
2018-08-25 06:00:00 16.4 5 Nordeste 14 Norte 0 1010.6 -0.9 69
2018-08-25 05:00:00 16.8 10 Norte 17 Norte 0 1011 -0.9 70
2018-08-25 04:00:00 16.8 9 Nordeste 13 Nordeste 0 1011.1 -1.2 73
2018-08-25 03:00:00 17 10 Nordeste 15 Nordeste 0 1011.5 -0.7 71
2018-08-25 02:00:00 16.9 12 Nordeste 18 Nordeste 0 1011.9 -0.5 74
2018-08-25 01:00:00 16.9 13 Nordeste 18 Nordeste 0 1012.3 0.1 73
2018-08-25 00:00:00 16.9 13 Nordeste 20 Nordeste 0 1012.2 0.3 74
2018-08-24 23:00:00 17 13 Nordeste 23 Nordeste 0 1012.4 0.6 76
2018-08-24 22:00:00 17.1 17 Nordeste 25 Nordeste 0 1012.2 0.3 75
2018-08-24 21:00:00 17.6 16 Nordeste 27 Nordeste 0 1011.9 -0.3 75
2018-08-24 20:00:00 18.1 17 Nordeste 27 Nordeste 0 1011.8 -0.6 75
2018-08-24 19:00:00 18.6 13 Nordeste 22 Nordeste 0 1011.9 -1.2 75
2018-08-24 18:00:00 19.1 13 Nordeste 24 Nordeste 0 1012.2 -1.2 74
2018-08-24 17:00:00 19.4 13 Nordeste 22 Nordeste 0 1012.4 -0.9 72
2018-08-24 16:00:00 20.6 6 Nordeste 12 Este 0 1013.1 -0.4 61
2018-08-24 15:00:00 20.7 9 Este 14 Este 0 1013.4 -0.1 63
2018-08-24 14:00:00 20.4 8 Este 16 Este 0 1013.3 0 63
2018-08-24 13:00:00 20.8 9 Este 16 Este 0 1013.5 0.4 64
2018-08-24 12:00:00 19.6 8 Este 14 Este 0 1013.5 0.6 69
2018-08-24 11:00:00 19 8 Este 16 Este 0 1013.3 0.7 72
2018-08-24 10:00:00 17.7 13 Este 21 Este 0 1013.1 1 78
2018-08-24 09:00:00 17.4 14 Este 19 Este 0 1012.9 0.9 78
2018-08-24 08:00:00 17.4 12 Nordeste 26 Nordeste 0 1012.6 0.7 74
2018-08-24 07:00:00 17.3 12 Nordeste 25 Nordeste 0 1012.1 0.2 79
2018-08-24 06:00:00 17.2 16 Norte 32 Nordeste 0 1012 0.1 79
2018-08-24 05:00:00 17.4 18 Norte 31 Nordeste 0 1011.9 -0.3 83
2018-08-24 04:00:00 17.3 13 Nordeste 35 Nordeste 0 1011.9 -0.5 89
2018-08-24 03:00:00 17.2 21 Nordeste 36 Nordeste 0 1011.9 -0.5 92
2018-08-24 02:00:00 18.3 21 Nordeste 33 Nordeste 0 1012.2 0.1 90
2018-08-24 01:00:00 18.6 7 Nordeste 15 Nordeste 0 1012.4 0.5 82
2018-08-24 00:00:00 19.2 8 Sudeste 17 Sudeste 0 1012.4 1.1 77